Time;durP1;ratioP1;P1;durP2;ratioP2;P2;SDS_P1;SDS_P2;PMS_P1;PMS_P2;Temp;Humidity;BMP_temperature;BMP_pressure;BME280_temperature;BME280_humidity;BME280_pressure;Samples;Min_cycle;Max_cycle;Signal;HPM_P1;HPM_P2
2022/09/23 04:15:40;;;;;;;3.45;2.72;;;29.10;99.90;;;;;;4114077;28;20409;-72
2022/09/23 04:17:45;;;;;;;3.25;2.50;;;29.20;99.90;;;;;;4143528;28;20457;-71
2022/09/23 04:19:50;;;;;;;4.15;2.30;;;29.30;99.90;;;;;;4138006;28;20124;-71
2022/09/23 04:21:55;;;;;;;64.03;6.18;;;29.40;99.90;;;;;;4176347;28;20511;-71
2022/09/23 04:24:01;;;;;;;68.75;8.90;;;29.40;99.90;;;;;;4146568;28;20038;-71
2022/09/23 04:26:07;;;;;;;29.60;4.22;;;29.40;99.90;;;;;;4146169;28;20052;-71
2022/09/23 04:28:14;;;;;;;20.52;3.42;;;29.40;99.90;;;;;;4146545;28;20038;-71
2022/09/23 04:30:22;;;;;;;7.63;3.17;;;29.40;99.90;;;;;;4146114;28;20144;-71
2022/09/23 04:32:27;;;;;;;7.45;3.00;;;29.40;99.90;;;;;;4146591;28;20073;-71
2022/09/23 04:34:34;;;;;;;5.10;2.65;;;29.30;99.90;;;;;;4161451;28;20041;-71
2022/09/23 04:36:44;;;;;;;6.50;2.60;;;29.30;99.90;;;;;;4146374;28;20045;-71
2022/09/23 04:38:49;;;;;;;5.90;3.10;;;29.20;99.90;;;;;;4160666;28;20077;-71
2022/09/23 04:40:54;;;;;;;7.03;3.25;;;29.10;99.90;;;;;;4144256;28;20128;-72
2022/09/23 04:43:00;;;;;;;6.05;3.08;;;29.10;99.90;;;;;;4159317;28;20084;-69
2022/09/23 04:45:07;;;;;;;7.32;3.60;;;29.10;99.90;;;;;;4128923;28;20563;-70
2022/09/23 04:47:18;;;;;;;7.65;3.55;;;29.00;99.90;;;;;;4131176;28;20457;-71
2022/09/23 04:49:22;;;;;;;8.40;3.50;;;29.00;99.90;;;;;;4145518;28;20042;-71
2022/09/23 04:51:27;;;;;;;8.75;5.13;;;29.10;99.90;;;;;;4144828;28;20121;-71
2022/09/23 04:53:32;;;;;;;30.25;7.85;;;29.10;99.90;;;;;;4145200;28;20045;-70
2022/09/23 04:55:40;;;;;;;15.23;7.15;;;29.10;99.90;;;;;;4144519;28;20050;-71
2022/09/23 04:57:47;;;;;;;19.23;4.95;;;29.20;99.90;;;;;;4145069;28;20058;-70
2022/09/23 04:59:53;;;;;;;9.32;3.92;;;29.20;99.90;;;;;;4160354;28;20044;-70
2022/09/23 05:02:00;;;;;;;7.07;4.03;;;29.40;99.90;;;;;;4160182;28;20427;-71
2022/09/23 05:04:07;;;;;;;6.28;3.42;;;29.30;99.90;;;;;;4145116;28;20049;-72
2022/09/23 05:06:15;;;;;;;11.13;4.03;;;29.30;99.90;;;;;;4144429;28;20065;-70
2022/09/23 05:08:25;;;;;;;5.25;3.30;;;29.30;99.90;;;;;;4145031;28;20081;-71
2022/09/23 05:10:33;;;;;;;5.95;5.05;;;29.40;99.90;;;;;;4143728;28;20053;-71
2022/09/23 05:12:39;;;;;;;6.07;3.33;;;29.30;99.90;;;;;;4145510;28;20065;-70
2022/09/23 05:14:48;;;;;;;8.35;3.15;;;29.20;99.90;;;;;;4144936;28;20049;-70
2022/09/23 05:16:53;;;;;;;4.78;3.58;;;29.20;99.90;;;;;;4143586;28;20054;-69
2022/09/23 05:19:00;;;;;;;4.93;2.78;;;29.10;99.90;;;;;;4144960;28;20061;-70
2022/09/23 05:21:09;;;;;;;3.28;2.53;;;29.10;99.90;;;;;;4142087;28;20116;-70
2022/09/23 05:23:14;;;;;;;5.57;3.47;;;29.10;99.90;;;;;;4160880;28;20049;-70
2022/09/23 05:25:19;;;;;;;6.55;3.38;;;29.20;99.90;;;;;;4159957;28;20119;-70
2022/09/23 05:27:24;;;;;;;6.03;3.38;;;29.30;99.90;;;;;;4144994;28;20050;-69
2022/09/23 05:29:30;;;;;;;9.38;6.65;;;29.40;99.90;;;;;;4160199;28;20048;-68
2022/09/23 05:31:39;;;;;;;13.63;7.63;;;29.50;99.90;;;;;;4144914;28;20555;-69
2022/09/23 05:33:45;;;;;;;9.25;6.68;;;29.50;99.90;;;;;;4145045;28;20141;-70
2022/09/23 05:35:51;;;;;;;13.77;5.72;;;29.50;99.90;;;;;;4161072;28;20037;-70
2022/09/23 05:37:56;;;;;;;6.78;4.80;;;29.60;99.90;;;;;;4160595;28;20049;-70
2022/09/23 05:40:02;;;;;;;4.78;3.95;;;29.80;99.90;;;;;;4176991;28;20447;-69
2022/09/23 05:42:07;;;;;;;4.30;3.40;;;30.00;99.90;;;;;;4145865;28;20053;-69
2022/09/23 05:44:14;;;;;;;4.63;2.88;;;30.10;99.90;;;;;;4146113;28;20053;-69
2022/09/23 05:46:22;;;;;;;6.13;3.20;;;30.10;99.90;;;;;;4177576;28;20048;-69
2022/09/23 05:48:27;;;;;;;6.30;3.30;;;30.20;99.90;;;;;;4177396;28;20072;-69
2022/09/23 05:50:34;;;;;;;3.97;2.83;;;30.20;99.90;;;;;;4176689;28;20107;-69
2022/09/23 05:52:42;;;;;;;4.25;3.03;;;30.10;99.90;;;;;;4146040;28;20480;-70
2022/09/23 05:54:46;;;;;;;6.05;3.55;;;30.10;99.90;;;;;;4146219;28;20503;-70
2022/09/23 05:56:55;;;;;;;6.63;2.80;;;30.00;99.90;;;;;;4145591;28;20046;-69
2022/09/23 05:59:07;;;;;;;3.67;2.60;;;30.00;99.90;;;;;;4177477;28;20588;-69
2022/09/23 06:01:14;;;;;;;4.13;2.72;;;30.10;99.90;;;;;;4145890;28;20094;-69
2022/09/23 06:03:21;;;;;;;4.90;2.72;;;30.10;99.90;;;;;;4177207;28;20132;-69
2022/09/23 06:05:29;;;;;;;4.15;2.85;;;30.00;99.90;;;;;;4145862;28;20084;-69
2022/09/23 06:07:34;;;;;;;4.07;3.05;;;30.10;99.90;;;;;;4177315;28;20492;-70
2022/09/23 06:09:39;;;;;;;3.17;2.53;;;30.10;99.90;;;;;;4148651;28;20045;-71
2022/09/23 06:11:44;;;;;;;5.95;3.13;;;30.10;99.90;;;;;;4148711;28;20086;-70
2022/09/23 06:13:59;;;;;;;6.78;3.00;;;30.20;99.90;;;;;;4148639;28;20053;-70
2022/09/23 06:16:11;;;;;;;4.45;2.63;;;30.20;99.90;;;;;;4148446;28;20133;-70
2022/09/23 06:18:18;;;;;;;4.63;2.70;;;30.20;99.90;;;;;;4179053;28;20049;-70
2022/09/23 06:20:25;;;;;;;3.97;2.75;;;30.30;99.90;;;;;;4148316;28;20050;-69
2022/09/23 06:22:30;;;;;;;5.43;2.90;;;30.30;99.90;;;;;;4148241;28;20568;-68
2022/09/23 06:24:39;;;;;;;5.15;2.72;;;30.40;99.90;;;;;;4148530;28;20046;-69
2022/09/23 06:26:45;;;;;;;3.40;2.70;;;30.40;99.90;;;;;;4148223;28;20470;-69
2022/09/23 06:28:52;;;;;;;4.40;2.70;;;30.50;99.90;;;;;;4147213;28;20054;-70
2022/09/23 06:31:01;;;;;;;3.72;2.65;;;30.60;99.90;;;;;;4114579;28;20043;-70
2022/09/23 06:33:06;;;;;;;3.08;2.72;;;30.60;99.90;;;;;;4148687;28;20046;-69
2022/09/23 06:35:11;;;;;;;4.00;2.30;;;30.60;99.90;;;;;;4148633;28;20054;-69
2022/09/23 06:37:31;;;;;;;4.80;2.72;;;30.70;99.90;;;;;;4148303;28;20042;-69
2022/09/23 06:39:36;;;;;;;2.58;2.00;;;30.80;99.90;;;;;;4148361;28;20496;-69
2022/09/23 06:41:43;;;;;;;2.92;2.40;;;30.80;99.90;;;;;;4180075;28;20055;-70
2022/09/23 06:43:51;;;;;;;2.65;2.15;;;30.90;99.90;;;;;;4179454;28;20053;-70
2022/09/23 06:45:56;;;;;;;3.95;2.17;;;31.00;99.90;;;;;;4179594;28;20399;-71
2022/09/23 06:48:07;;;;;;;4.15;2.15;;;31.00;99.90;;;;;;4147962;28;20060;-70
2022/09/23 06:50:14;;;;;;;4.05;2.10;;;30.90;99.90;;;;;;4128901;28;20069;-70
2022/09/23 06:52:19;;;;;;;2.78;1.92;;;30.90;99.90;;;;;;4148375;28;20042;-71
2022/09/23 06:54:27;;;;;;;3.08;2.10;;;30.90;99.90;;;;;;4148140;28;20046;-71
2022/09/23 06:56:34;;;;;;;2.58;2.05;;;31.00;99.90;;;;;;4129642;28;20607;-70
2022/09/23 06:58:42;;;;;;;2.75;1.58;;;31.10;99.90;;;;;;4163265;28;20076;-71
2022/09/23 07:00:46;;;;;;;2.35;1.60;;;31.20;99.90;;;;;;4148085;28;20496;-70
2022/09/23 07:02:54;;;;;;;2.17;1.50;;;31.10;99.90;;;;;;4147932;28;20053;-71
2022/09/23 07:04:58;;;;;;;1.63;1.23;;;31.00;99.90;;;;;;4147781;28;20448;-71
2022/09/23 07:07:06;;;;;;;4.38;1.40;;;31.10;99.90;;;;;;4148013;28;20118;-71
2022/09/23 07:09:12;;;;;;;3.45;1.33;;;31.10;99.90;;;;;;4178604;28;20052;-69
2022/09/23 07:11:21;;;;;;;1.10;1.00;;;31.10;99.90;;;;;;4147951;28;20053;-71
2022/09/23 07:13:28;;;;;;;2.28;1.10;;;31.10;99.90;;;;;;4147891;28;20054;-71
2022/09/23 07:15:34;;;;;;;1.05;0.90;;;31.20;99.90;;;;;;4147739;28;20084;-70
2022/09/23 07:17:43;;;;;;;4.55;1.20;;;31.20;99.90;;;;;;4147932;28;20064;-71
2022/09/23 07:20:08;;;;;;;3.40;1.20;;;31.20;99.90;;;;;;4174233;28;20048;-71
2022/09/23 07:22:17;;;;;;;1.40;0.93;;;31.20;99.90;;;;;;4145370;28;20365;-70
2022/09/23 07:24:22;;;;;;;2.58;0.90;;;31.30;99.90;;;;;;4147685;28;20076;-70
2022/09/23 07:26:29;;;;;;;1.40;1.10;;;31.40;99.90;;;;;;4147437;28;20050;-70
2022/09/23 07:28:37;;;;;;;2.28;1.10;;;31.50;99.90;;;;;;4147714;28;20057;-70
2022/09/23 07:30:42;;;;;;;1.27;1.05;;;31.50;99.90;;;;;;4147737;28;20042;-71
2022/09/23 07:33:03;;;;;;;3.17;0.88;;;31.50;99.90;;;;;;4147753;28;20048;-70
2022/09/23 07:35:30;;;;;;;1.02;0.90;;;31.50;99.90;;;;;;4147289;28;20683;-70
2022/09/23 07:37:34;;;;;;;7.15;1.10;;;31.50;99.90;;;;;;4147711;28;20052;-70
2022/09/23 07:39:42;;;;;;;3.20;1.30;;;31.40;99.90;;;;;;4162298;28;20060;-70
2022/09/23 07:41:50;;;;;;;2.63;1.65;;;31.40;99.90;;;;;;4126982;28;20161;-71
2022/09/23 07:43:59;;;;;;;2.65;1.80;;;31.30;99.60;;;;;;4143401;28;20058;-71
2022/09/23 07:46:13;;;;;;;3.63;1.77;;;31.30;99.90;;;;;;4146989;28;20064;-70
2022/09/23 07:48:23;;;;;;;11.50;1.75;;;31.20;99.90;;;;;;4113432;28;20058;-71
2022/09/23 07:50:39;;;;;;;6.75;2.53;;;31.20;99.90;;;;;;4176401;28;20120;-71
2022/09/23 07:52:51;;;;;;;8.75;2.53;;;31.10;99.90;;;;;;4139471;28;20501;-71
2022/09/23 07:55:00;;;;;;;4.00;1.88;;;31.10;99.90;;;;;;4130854;28;20137;-71
2022/09/23 07:57:24;;;;;;;4.22;2.13;;;31.10;99.90;;;;;;4157525;28;20065;-69
2022/09/23 07:59:38;;;;;;;17.55;6.22;;;31.10;99.90;;;;;;4137481;28;20117;-71
2022/09/23 08:01:57;;;;;;;62.83;38.25;;;31.10;99.90;;;;;;4147221;28;20742;-71
2022/09/23 08:04:16;;;;;;;143.38;45.53;;;31.10;99.90;;;;;;4147171;28;20169;-71
2022/09/23 08:06:24;;;;;;;34.58;12.13;;;30.90;99.90;;;;;;4146866;28;20517;-70
2022/09/23 08:08:31;;;;;;;37.75;13.30;;;30.90;99.90;;;;;;4161571;28;20038;-71
2022/09/23 08:10:37;;;;;;;24.88;8.35;;;30.90;99.90;;;;;;4146738;28;20069;-70
2022/09/23 08:12:45;;;;;;;12.38;4.55;;;30.80;99.90;;;;;;4178187;28;20037;-70
2022/09/23 08:14:52;;;;;;;6.78;2.78;;;30.80;99.90;;;;;;4147193;28;20042;-70
2022/09/23 08:16:56;;;;;;;4.45;2.20;;;30.70;99.90;;;;;;4178147;28;20100;-70
2022/09/23 08:19:01;;;;;;;6.70;2.78;;;30.40;99.90;;;;;;4146775;28;20072;-70
2022/09/23 08:21:20;;;;;;;5.13;2.65;;;30.10;99.90;;;;;;4098682;28;20047;-70
2022/09/23 08:23:32;;;;;;;7.43;3.33;;;29.90;99.90;;;;;;4130099;28;20080;-70
2022/09/23 08:25:41;;;;;;;4.57;2.38;;;29.90;99.90;;;;;;4130596;28;20069;-70
2022/09/23 08:27:56;;;;;;;3.33;2.45;;;29.80;99.90;;;;;;4130696;28;20053;-71
2022/09/23 08:30:12;;;;;;;3.45;1.75;;;29.60;99.90;;;;;;4130529;28;20049;-71
2022/09/23 08:32:30;;;;;;;2.90;2.00;;;29.20;99.90;;;;;;4130416;28;20355;-70
2022/09/23 08:34:48;;;;;;;4.50;1.80;;;29.00;99.90;;;;;;4130338;28;20478;-71
2022/09/23 08:37:09;;;;;;;4.25;2.20;;;28.90;99.90;;;;;;4140894;28;20050;-71
2022/09/23 08:40:00;;;;;;;3.15;2.03;;;29.10;99.90;;;;;;4146677;28;20046;-70
2022/09/23 08:42:29;;;;;;;3.35;2.13;;;29.30;99.90;;;;;;4145870;28;20077;-71
2022/09/23 08:45:06;;;;;;;3.58;2.40;;;29.20;99.90;;;;;;4146693;28;20109;-72
2022/09/23 08:47:48;;;;;;;4.47;2.10;;;29.10;99.90;;;;;;4146873;28;20041;-71
2022/09/23 08:50:34;;;;;;;2.60;2.00;;;29.20;99.90;;;;;;4146432;28;20034;-71
2022/09/23 08:53:04;;;;;;;3.28;1.85;;;29.30;99.90;;;;;;4147013;28;20604;-71
2022/09/23 08:58:37;;;;;;;3.45;2.03;;;29.40;99.90;;;;;;4146436;28;20117;-70
2022/09/23 09:06:24;;;;;;;4.40;2.38;;;29.70;99.90;;;;;;4146351;28;20057;-70
2022/09/23 09:11:11;;;;;;;5.65;3.63;;;29.60;99.90;;;;;;4146800;28;20425;-71
2022/09/23 09:13:53;;;;;;;5.82;3.00;;;29.70;99.90;;;;;;4146464;28;20385;-71
2022/09/23 09:16:37;;;;;;;4.03;3.15;;;29.60;99.90;;;;;;4115959;28;20058;-69
2022/09/23 09:19:31;;;;;;;5.50;2.83;;;29.60;99.90;;;;;;4146413;28;20046;-71
2022/09/23 09:29:45;;;;;;;3.50;2.65;;;29.40;99.90;;;;;;4145968;28;20038;-70
2022/09/23 09:32:25;;;;;;;3.40;2.35;;;29.40;99.90;;;;;;4145968;28;20580;-70
2022/09/23 09:42:42;;;;;;;4.95;2.40;;;29.00;99.90;;;;;;4146299;28;20050;-71
2022/09/23 09:45:09;;;;;;;2.45;1.80;;;28.80;99.90;;;;;;4149531;28;20732;-72
2022/09/23 09:47:45;;;;;;;4.60;1.30;;;28.60;99.90;;;;;;4131123;28;20050;-71
2022/09/23 09:55:17;;;;;;;;;;;28.30;99.90;;;;;;4146344;28;20049;-71
2022/09/23 09:58:04;;;;;;;4.05;1.00;;;28.30;99.90;;;;;;4139148;28;19975;-70
2022/09/23 10:03:27;;;;;;;3.10;1.00;;;28.40;99.90;;;;;;4145032;28;20049;-71
2022/09/23 10:08:33;;;;;;;2.47;1.75;;;28.40;99.90;;;;;;4141908;28;20129;-70
2022/09/23 10:13:31;;;;;;;6.68;2.30;;;28.30;99.90;;;;;;4146455;28;20053;-71
2022/09/23 10:21:13;;;;;;;3.43;0.97;;;28.20;99.90;;;;;;4144905;28;20053;-70
2022/09/23 10:28:50;;;;;;;3.05;0.80;;;28.20;99.90;;;;;;4155412;28;20049;-70
2022/09/23 10:31:23;;;;;;;2.75;1.17;;;28.20;99.90;;;;;;4145698;28;20497;-71
2022/09/23 10:50:10;;;;;;;5.05;1.52;;;28.10;99.90;;;;;;4145464;28;20080;-71
2022/09/23 10:55:28;;;;;;;3.08;1.70;;;28.00;99.90;;;;;;4142945;28;20524;-70
2022/09/23 10:58:03;;;;;;;3.92;2.00;;;27.90;99.90;;;;;;4144511;28;20119;-70
2022/09/23 11:11:20;;;;;;;4.28;1.98;;;27.70;99.90;;;;;;4143985;28;20065;-71
2022/09/23 11:13:51;;;;;;;3.25;2.13;;;27.80;99.90;;;;;;4143877;28;20037;-72
2022/09/23 11:19:08;;;;;;;7.07;2.55;;;27.90;99.90;;;;;;4144692;28;20516;-71
2022/09/23 11:21:38;;;;;;;5.55;3.08;;;27.90;99.90;;;;;;4144173;28;20379;-71
2022/09/23 11:32:34;;;;;;;5.13;1.80;;;27.80;99.90;;;;;;4175913;28;20148;-69
2022/09/23 11:43:50;;;;;;;1.50;1.10;;;27.30;99.90;;;;;;4144813;28;20041;-70
2022/09/23 11:48:56;;;;;;;2.22;1.20;;;27.50;99.90;;;;;;4143785;28;20104;-69
2022/09/23 11:59:15;;;;;;;2.70;1.60;;;27.60;99.90;;;;;;4144025;28;20053;-70
2022/09/23 12:02:01;;;;;;;4.72;1.67;;;27.60;99.90;;;;;;4124486;28;20480;-70
2022/09/23 12:04:35;;;;;;;3.78;1.90;;;27.60;99.90;;;;;;4134404;28;20096;-70
2022/09/23 12:12:58;;;;;;;4.25;1.92;;;27.60;99.90;;;;;;4143827;28;20133;-69
2022/09/23 12:24:10;;;;;;;4.90;2.75;;;27.60;99.90;;;;;;4174425;28;20125;-71
2022/09/23 12:29:06;;;;;;;6.65;2.20;;;27.60;99.90;;;;;;4144305;28;20038;-71
2022/09/23 12:34:04;;;;;;;5.70;2.50;;;27.70;99.90;;;;;;4137208;28;20424;-70
2022/09/23 12:36:22;;;;;;;5.38;2.20;;;27.70;99.90;;;;;;4141299;28;20046;-74
2022/09/23 12:41:58;;;;;;;6.68;2.47;;;27.50;99.90;;;;;;4133353;28;20049;-73
2022/09/23 12:44:35;;;;;;;5.00;2.22;;;27.50;99.90;;;;;;4135628;28;20073;-72
2022/09/23 12:58:49;;;;;;;9.80;3.03;;;27.50;99.90;;;;;;4139792;28;20037;-72
2022/09/23 13:06:38;;;;;;;9.02;2.20;;;27.20;99.90;;;;;;4142761;28;20055;-72
2022/09/23 13:08:59;;;;;;;6.63;2.17;;;27.20;99.90;;;;;;4143852;28;20038;-72
2022/09/23 13:11:29;;;;;;;5.25;2.33;;;27.30;99.90;;;;;;4141406;28;20046;-73
2022/09/23 13:13:53;;;;;;;4.28;2.00;;;27.40;99.90;;;;;;4144068;28;20058;-73
2022/09/23 13:19:01;;;;;;;3.33;2.30;;;27.40;99.90;;;;;;4143502;28;20056;-72
2022/09/23 13:21:27;;;;;;;6.80;2.13;;;27.40;99.90;;;;;;4143765;28;20058;-73
2022/09/23 13:23:56;;;;;;;4.03;2.42;;;27.50;99.90;;;;;;4157502;28;20044;-73
2022/09/23 13:26:28;;;;;;;5.55;2.15;;;27.50;99.90;;;;;;4141713;28;20080;-73
2022/09/23 13:28:57;;;;;;;4.10;2.20;;;27.50;99.90;;;;;;4142386;28;20042;-73
2022/09/23 13:31:15;;;;;;;10.13;2.58;;;27.50;99.90;;;;;;4144223;28;20077;-72
2022/09/23 13:38:57;;;;;;;6.57;3.10;;;27.50;99.90;;;;;;4142462;28;20128;-73
2022/09/23 13:41:27;;;;;;;5.03;2.53;;;27.50;99.90;;;;;;4142534;28;20107;-72
2022/09/23 13:47:02;;;;;;;4.88;2.50;;;27.50;99.90;;;;;;4143386;28;20054;-74
2022/09/23 13:52:22;;;;;;;6.75;2.50;;;27.40;99.90;;;;;;4143447;28;20038;-72
2022/09/23 13:57:20;;;;;;;5.93;2.60;;;27.50;99.90;;;;;;4142993;28;20049;-73
2022/09/23 14:04:41;;;;;;;8.23;2.65;;;27.40;99.90;;;;;;4144377;28;20128;-72
2022/09/23 14:07:10;;;;;;;6.60;2.90;;;27.40;99.90;;;;;;4144438;28;20073;-72
2022/09/23 14:14:48;;;;;;;8.85;3.00;;;27.50;99.90;;;;;;4144598;28;20153;-73
2022/09/23 14:19:35;;;;;;;11.07;3.20;;;27.50;99.90;;;;;;4144451;28;20084;-73
2022/09/23 14:27:15;;;;;;;6.15;3.30;;;27.50;99.90;;;;;;4144284;28;20056;-73
2022/09/23 14:32:23;;;;;;;10.27;3.55;;;27.50;99.90;;;;;;4146975;28;20060;-73
2022/09/23 14:34:47;;;;;;;8.20;3.63;;;27.40;99.90;;;;;;4146856;28;20476;-73
2022/09/23 14:51:02;;;;;;;7.75;3.63;;;27.30;99.90;;;;;;4146599;28;20485;-73
2022/09/23 14:53:36;;;;;;;9.55;3.85;;;27.30;99.90;;;;;;4147323;28;20100;-74
2022/09/23 14:55:53;;;;;;;9.35;3.75;;;27.30;99.90;;;;;;4147067;28;20428;-73
2022/09/23 14:58:16;;;;;;;9.35;4.30;;;27.30;99.90;;;;;;4147109;28;20053;-74
2022/09/23 15:19:17;;;;;;;10.73;4.32;;;27.40;99.90;;;;;;4146549;28;20416;-72
2022/09/23 15:29:49;;;;;;;6.88;4.30;;;27.20;99.90;;;;;;4130317;28;20057;-72
2022/09/23 15:32:09;;;;;;;10.43;4.75;;;27.20;99.90;;;;;;4130435;28;20054;-72
2022/09/23 15:34:40;;;;;;;12.10;4.50;;;27.20;99.90;;;;;;4130384;28;20050;-73
2022/09/23 15:45:21;;;;;;;10.20;4.40;;;27.20;99.90;;;;;;4131500;28;20138;-72
2022/09/23 15:57:40;;;;;;;8.70;5.03;;;27.00;99.90;;;;;;4143920;28;20100;-72
2022/09/23 15:59:58;;;;;;;8.48;4.78;;;27.00;99.90;;;;;;4144486;28;20049;-72
2022/09/23 16:05:04;;;;;;;8.50;4.72;;;26.90;99.90;;;;;;4145682;28;20547;-72
2022/09/23 16:07:23;;;;;;;9.15;5.05;;;26.90;99.90;;;;;;4145838;28;20133;-71
2022/09/23 16:09:53;;;;;;;12.40;5.07;;;27.00;99.90;;;;;;4145873;28;20080;-71
2022/09/23 16:15:06;;;;;;;9.88;4.68;;;27.00;99.90;;;;;;4146370;28;20046;-72
2022/09/23 16:20:17;;;;;;;9.75;4.90;;;27.00;99.90;;;;;;4144889;28;20046;-72
2022/09/23 16:23:07;;;;;;;7.32;4.60;;;27.00;99.90;;;;;;4145373;28;20060;-72
2022/09/23 16:32:52;;;;;;;8.38;4.90;;;27.10;99.90;;;;;;4128884;28;20042;-72
2022/09/23 16:37:54;;;;;;;7.65;4.95;;;27.10;99.90;;;;;;4129417;28;20074;-72
2022/09/23 16:42:44;;;;;;;9.52;5.10;;;27.10;99.90;;;;;;4128760;28;20050;-71
2022/09/23 16:50:02;;;;;;;9.57;5.03;;;27.10;99.90;;;;;;4145723;28;20080;-72
2022/09/23 16:52:19;;;;;;;11.25;5.20;;;27.10;99.90;;;;;;4145176;28;20045;-72
2022/09/23 17:09:18;;;;;;;9.07;4.70;;;27.00;99.90;;;;;;4144455;28;20065;-72
2022/09/23 17:14:55;;;;;;;8.25;4.93;;;26.90;99.90;;;;;;4127670;28;20085;-72
2022/09/23 17:33:36;;;;;;;13.07;5.22;;;26.80;99.90;;;;;;4144986;28;20092;-73
2022/09/23 17:41:09;;;;;;;7.90;5.45;;;26.70;99.90;;;;;;4131035;28;20081;-72
2022/09/23 17:43:38;;;;;;;8.70;5.43;;;26.80;99.90;;;;;;4141590;28;20527;-72
2022/09/23 17:48:40;;;;;;;7.10;5.93;;;26.80;99.90;;;;;;4144171;28;20046;-72
2022/09/23 17:51:22;;;;;;;10.70;6.38;;;26.80;99.90;;;;;;4144279;28;20501;-71
2022/09/23 17:53:45;;;;;;;9.75;6.53;;;26.90;99.90;;;;;;4144430;28;20763;-72
2022/09/23 17:55:57;;;;;;;9.98;6.22;;;26.90;99.90;;;;;;4144539;28;20054;-72
2022/09/23 17:58:17;;;;;;;8.25;6.15;;;26.90;99.90;;;;;;4145166;28;20073;-72
2022/09/23 18:00:49;;;;;;;10.70;6.63;;;26.90;99.90;;;;;;4145502;28;20053;-72
2022/09/23 18:06:05;;;;;;;13.00;6.45;;;26.90;99.90;;;;;;4145774;28;20481;-72
2022/09/23 18:11:36;;;;;;;8.40;6.47;;;26.90;99.90;;;;;;4142850;28;20089;-72
2022/09/23 18:16:50;;;;;;;11.77;7.25;;;26.90;99.90;;;;;;4131665;28;20716;-72
2022/09/23 18:19:10;;;;;;;10.68;6.43;;;26.80;99.90;;;;;;4131798;28;20064;-72
2022/09/23 18:21:15;;;;;;;11.00;6.72;;;26.70;99.90;;;;;;4133543;28;20058;-72
2022/09/23 18:23:21;;;;;;;9.90;6.25;;;26.60;99.90;;;;;;4147427;28;20108;-72
2022/09/23 18:25:57;;;;;;;10.38;6.60;;;26.50;99.90;;;;;;4147622;28;20445;-72
2022/09/23 18:41:07;;;;;;;10.88;5.90;;;26.50;99.90;;;;;;4147663;28;20108;-72
2022/09/23 18:46:04;;;;;;;10.90;6.22;;;26.60;99.90;;;;;;4147801;28;20125;-72
2022/09/23 18:56:26;;;;;;;9.70;5.87;;;26.50;99.90;;;;;;4147928;28;20108;-72
2022/09/23 19:02:06;;;;;;;8.57;5.28;;;26.60;99.90;;;;;;4147411;28;20170;-72
2022/09/23 19:04:35;;;;;;;8.13;5.47;;;26.50;99.90;;;;;;4147634;28;20046;-72
2022/09/23 19:06:56;;;;;;;11.45;4.68;;;26.50;99.90;;;;;;4147061;28;20048;-72
2022/09/23 19:14:00;;;;;;;7.65;5.00;;;26.60;99.90;;;;;;4162131;28;20511;-72
2022/09/23 19:27:18;;;;;;;8.10;4.88;;;26.60;99.90;;;;;;4146129;28;20053;-72
2022/09/23 19:37:21;;;;;;;9.45;5.40;;;26.50;99.90;;;;;;4147109;28;20041;-71
2022/09/23 19:39:30;;;;;;;7.13;5.28;;;26.50;99.90;;;;;;4146554;28;20058;-71
2022/09/23 19:41:52;;;;;;;10.00;5.22;;;26.50;99.90;;;;;;4146709;28;20103;-72
2022/09/23 19:47:17;;;;;;;7.38;4.95;;;26.50;99.90;;;;;;4146556;28;20684;-72
2022/09/23 19:49:47;;;;;;;9.63;5.00;;;26.20;99.90;;;;;;4146456;28;20141;-72
2022/09/23 19:52:30;;;;;;;7.32;4.32;;;25.90;99.90;;;;;;4115655;28;20055;-72
2022/09/23 19:57:43;;;;;;;8.15;5.47;;;25.80;99.90;;;;;;4146029;28;20695;-72
2022/09/23 20:02:17;;;;;;;10.57;4.40;;;26.00;99.90;;;;;;4146583;28;20057;-72
2022/09/23 20:10:12;;;;;;;8.07;3.97;;;26.20;99.90;;;;;;4146067;28;20085;-72
2022/09/23 20:12:30;;;;;;;10.90;3.92;;;26.40;99.90;;;;;;4145818;28;20046;-72
2022/09/23 20:14:47;;;;;;;10.52;4.20;;;26.40;99.90;;;;;;4145593;28;20042;-72
2022/09/23 20:17:03;;;;;;;7.68;4.00;;;26.50;99.90;;;;;;4145348;28;20046;-72
2022/09/23 20:19:34;;;;;;;5.65;3.75;;;26.50;99.90;;;;;;4145798;28;20125;-72
2022/09/23 20:30:42;;;;;;;7.60;3.92;;;26.60;99.90;;;;;;4145521;28;20041;-72
2022/09/23 20:38:28;;;;;;;7.15;4.07;;;26.50;99.90;;;;;;4145247;28;20092;-72
2022/09/23 20:40:49;;;;;;;6.53;3.72;;;26.50;99.90;;;;;;4145507;28;20046;-72
2022/09/23 20:43:19;;;;;;;7.50;4.03;;;26.40;99.90;;;;;;4145777;28;20041;-72
2022/09/23 20:45:35;;;;;;;7.68;4.07;;;26.50;99.90;;;;;;4145489;28;20500;-72
2022/09/23 20:48:20;;;;;;;10.20;4.18;;;26.50;99.90;;;;;;4143567;28;20053;-72
2022/09/23 20:53:12;;;;;;;4.88;3.47;;;26.40;99.90;;;;;;4145121;28;20040;-72
2022/09/23 20:55:41;;;;;;;8.77;3.47;;;26.30;99.90;;;;;;4146000;28;20054;-72
2022/09/23 20:57:47;;;;;;;7.20;3.70;;;26.40;99.90;;;;;;4145426;28;20049;-72
2022/09/23 21:00:09;;;;;;;5.63;3.45;;;26.40;99.90;;;;;;4145632;28;20437;-72
2022/09/23 21:05:28;;;;;;;7.15;3.55;;;26.40;99.90;;;;;;4145408;28;20046;-72
2022/09/23 21:07:46;;;;;;;8.90;3.88;;;26.40;99.90;;;;;;4145124;28;20044;-72
2022/09/23 21:10:08;;;;;;;7.30;3.67;;;26.50;99.90;;;;;;4145688;28;20050;-72
2022/09/23 21:12:18;;;;;;;11.15;4.10;;;26.50;99.90;;;;;;4146039;28;20038;-72
2022/09/23 21:14:24;;;;;;;5.95;3.35;;;26.50;99.90;;;;;;4145449;28;20503;-72
2022/09/23 21:19:40;;;;;;;7.47;3.85;;;26.50;99.90;;;;;;4129195;28;20560;-72
2022/09/23 21:24:43;;;;;;;;;;;26.40;99.90;;;;;;4145846;28;20155;-72
2022/09/23 21:30:21;;;;;;;8.75;4.35;;;26.40;99.90;;;;;;4175824;28;20064;-72
2022/09/23 21:32:39;;;;;;;7.47;3.88;;;26.40;99.90;;;;;;4144954;28;20065;-72
2022/09/23 21:34:56;;;;;;;8.45;4.20;;;26.40;99.90;;;;;;4145137;28;20763;-72
2022/09/23 21:51:06;;;;;;;7.35;4.43;;;26.50;99.90;;;;;;4148130;28;20056;-72
2022/09/23 21:53:50;;;;;;;7.78;4.05;;;26.40;99.90;;;;;;4148263;28;20469;-72
2022/09/23 22:01:36;;;;;;;8.20;4.57;;;26.30;99.90;;;;;;4148116;28;20464;-72
2022/09/23 22:06:41;;;;;;;9.20;4.28;;;26.40;99.90;;;;;;4148294;28;20053;-71
2022/09/23 22:14:37;;;;;;;6.30;4.40;;;26.40;99.90;;;;;;4147993;28;20642;-71
2022/09/23 22:16:43;;;;;;;8.27;5.25;;;26.20;99.90;;;;;;4147689;28;20695;-71
2022/09/23 22:34:51;;;;;;;8.02;4.55;;;26.10;99.90;;;;;;4147065;28;20528;-72
2022/09/23 22:42:29;;;;;;;7.88;4.93;;;25.90;99.90;;;;;;4148246;28;20057;-71
2022/09/23 22:45:04;;;;;;;8.13;4.75;;;25.90;99.90;;;;;;4148033;28;20520;-72
2022/09/23 22:47:37;;;;;;;9.20;5.10;;;26.00;99.90;;;;;;4147824;28;20046;-72
2022/09/23 22:50:14;;;;;;;8.57;5.10;;;26.00;99.90;;;;;;4141003;28;20066;-72
2022/09/23 23:06:18;;;;;;;9.45;5.40;;;26.10;99.90;;;;;;4146271;28;20048;-71
2022/09/23 23:09:02;;;;;;;11.00;5.43;;;26.00;99.90;;;;;;4149384;28;20046;-72
2022/09/23 23:14:43;;;;;;;13.32;6.82;;;26.10;99.90;;;;;;4146599;28;20100;-69
2022/09/23 23:24:58;;;;;;;9.93;6.10;;;26.10;99.90;;;;;;4147504;28;20046;-69
2022/09/23 23:27:07;;;;;;;8.75;5.40;;;26.20;99.90;;;;;;4147723;28;20468;-71
2022/09/23 23:32:16;;;;;;;7.97;4.90;;;26.20;99.90;;;;;;4140132;28;20138;-69
2022/09/23 23:37:01;;;;;;;7.03;4.70;;;26.20;99.90;;;;;;4158830;28;20038;-69
2022/09/23 23:42:13;;;;;;;11.18;4.03;;;26.30;99.90;;;;;;4146168;28;20838;-70
2022/09/23 23:47:20;;;;;;;11.98;5.15;;;26.20;99.90;;;;;;4142947;28;20056;-69
2022/09/23 23:51:57;;;;;;;6.88;4.30;;;26.10;99.90;;;;;;4144268;28;20104;-69
2022/09/23 23:56:54;;;;;;;7.60;4.78;;;26.20;99.90;;;;;;4143293;28;20388;-70
2022/09/23 23:59:09;;;;;;;8.57;4.25;;;26.30;99.90;;;;;;4144158;28;20710;-70
